Hundvaag 1 weather for Mar 2008
Month no. 249
Obs.
Da.
Temp. Dew Point Precip. Wind
Speed
Wind gusts Cloud cover Press. Humidity Wind dir. Sunny OPT
01.03.2008 4,6   25,0 0,0   3 967,5 89,0 67,5 1 45,0 %
02.03.2008 4,6   7,5 6,0   4 982,4 89,0 202,5 1 60,0 %
03.03.2008 0,9   3,4 0,0   3 993,2 93,0 270,0 1 60,0 %
04.03.2008 -0,3   1,5 8,0   4 1012,2 83,0 0,0 1 57,5 %
05.03.2008 -0,1   0,0 3,0   1 1023,4 69,0 0,0   55,0 %
06.03.2008 4,3   29,0 15,0   9 1003,0 84,0 337,5 1 47,5 %
07.03.2008 6,1   0,0 4,0   0 1002,4 83,0 180,0   57,5 %
08.03.2008 5,0   11,0 2,0   0 994,6 96,0 157,5   52,5 %
09.03.2008 5,9   13,5 1,0   3 986,1 92,0 157,5 1 57,5 %
10.03.2008 3,5   5,0 2,0   10 985,4 91,0 157,5 1 80,0 %
11.03.2008 6,2   0,1 0,0   3 979,3 81,0 157,5 1 67,5 %
12.03.2008 4,9   2,0 1,0   1 970,2 75,0 180,0   60,0 %
13.03.2008 3,7   0,2 0,0   1 988,8 93,0 157,5   60,0 %
14.03.2008 2,4   0,1 0,0   0 998,0 98,0 22,5   55,0 %
15.03.2008 4,8   6,0 0,0   0 1006,1 98,0 112,5   52,5 %
16.03.2008 1,4   0,0 1,0   0 1006,8 97,0 45,0   55,0 %
17.03.2008 1,2   0,2 8,0   0 1007,4 68,0 22,5   50,0 %
18.03.2008 2,0   0,2 5,0   10 1009,1 82,0 67,5 1 77,5 %
19.03.2008 1,2   0,0 5,0   10 1013,5 72,0 45,0 1 77,5 %
20.03.2008 0,7   1,0 1,0   0 1004,7 90,0 180,0   55,0 %
21.03.2008 0,9   12,0 6,0   1 976,0 67,0 45,0   45,0 %
22.03.2008 -2,1   0,0 4,0   10 1001,7 51,0 45,0 1 75,0 %
23.03.2008 -1,7   0,0 0,0   0 994,2 72,0 135,0   52,5 %
24.03.2008 -3,3   1,5 0,0   8 987,5 96,0 315,0 1 70,0 %
25.03.2008 -4,1   0,0 0,0   7 989,5 76,0 45,0 1 67,5 %
26.03.2008 -5,0   3,0 0,0   10 995,9 77,0 45,0 1 72,5 %
27.03.2008 -2,8   0,0 2,0   2 996,9 62,0 90,0   55,0 %
28.03.2008 3,3   8,0 7,0   0 998,0 89,0 135,0   50,0 %
29.03.2008 4,4   3,2 7,0   0 989,2 87,0 135,0   52,5 %
30.03.2008 7,2   10,0 9,0   0 993,9 93,0 135,0   47,5 %
31.03.2008 6,7   17,4 4,0   3 1003,0 96,0 135,0 1 52,5 %
Avrg/Sum 2,1   160,8 3,3   3,3 995,5 83,5 121,9 15 58,8 %